Airfield :
LOGIN :

Register | Disclaimer

   EN    FR    IT 

 










Legend :    VFR   Marginal VFR   IFR   Intensive IFR   Very Intensive IFR
Visi :
Ceiling :
>= 8 km
>= 3000ft
5 to 8 km
1000 to 3000 ft
1500m to 5 km
500 to 1000 ft
800 to 1500m
200 to 500 ft
< 800m
< 200 ft
Symbols :   Thunderstorms  Fog  Heavy snow  Heavy precipitations  Wind > 20 kt
SIGMETs :     Misc.  Thunderstorms  Icing  Turbulence  Mountain Waves  Volcanic Ashes






- Airport Elevation : 474 ft
- IATA code : HFS


ESOH - Hagfors

CURRENT METAR :
  • 210620Z AUTO 16004KT 090V220 9999 NCD 01/M01 Q0993

EXPIRED METARs :
  • 210550Z VRB03KT 9999 NSC 01/M01 Q0992
  • 210520Z 26007KT 210V310 9999 NSC 02/M01 Q0992
  • 210450Z AUTO 25004KT 180V290 9999 FEW051/// BKN150/// 02/00 Q0991
  • 210420Z AUTO 25006KT 200V280 9999 FEW048/// BKN140/// 02/01 Q0990
  • 210350Z AUTO 25008KT 210V290 9999 FEW061/// OVC140/// 03/02 Q0989

TAF N/A



MET'MAP, your aeronautical weather chart ! - Copyright ORBIFLY December 2007 - Disclaimer

ORBIFLY MET'MAP TEAM :

Programming & Development : Alexandra Zaïnal
Concept & original design : Baudouin d'Aumeries
Assistance for programming : Marc-Olivier Méhu
Technical & hardware support : Manuel Goepfert

Contact : metmap@orbifly.com




SOURCES & CREDITS :

   NOAA